Time;durP1;ratioP1;P1;durP2;ratioP2;P2;SDS_P1;SDS_P2;PMS_P1;PMS_P2;Temp;Humidity;BMP_temperature;BMP_pressure;BME280_temperature;BME280_humidity;BME280_pressure;Samples;Min_cycle;Max_cycle;Signal;HPM_P1;HPM_P2
2021/11/18 02:28:08;;;;;;;9.50;7.22;;;3.60;99.90;;;;;;6100912;22;1324313;-82
2021/11/18 02:30:39;;;;;;;9.45;7.25;;;3.60;99.90;;;;;;6041948;23;20031;-79
2021/11/18 02:33:07;;;;;;;7.60;6.18;;;3.70;99.90;;;;;;5989911;23;20023;-78
2021/11/18 02:35:39;;;;;;;8.63;5.93;;;3.60;99.90;;;;;;6016332;23;20038;-79
2021/11/18 02:38:08;;;;;;;7.03;6.13;;;3.60;99.90;;;;;;6046865;23;20027;-82
2021/11/18 02:40:36;;;;;;;7.68;5.20;;;3.60;99.90;;;;;;6050585;23;20015;-79
2021/11/18 02:43:05;;;;;;;6.85;5.40;;;3.60;99.90;;;;;;6036875;23;20042;-80
2021/11/18 02:45:36;;;;;;;7.78;5.75;;;3.60;99.90;;;;;;6043452;23;20012;-80
2021/11/18 02:48:04;;;;;;;11.02;6.88;;;3.60;99.90;;;;;;6035348;23;20019;-80
2021/11/18 02:50:36;;;;;;;7.70;5.30;;;3.60;99.90;;;;;;6038968;23;20328;-80
2021/11/18 02:53:05;;;;;;;9.57;6.47;;;3.60;99.90;;;;;;6010961;23;20023;-80
2021/11/18 02:55:38;;;;;;;7.80;6.50;;;3.60;99.90;;;;;;6036152;23;20255;-80
2021/11/18 02:58:22;;;;;;;6.70;5.15;;;3.60;99.90;;;;;;5916763;24;20036;-80
2021/11/18 03:01:08;;;;;;;9.23;5.97;;;3.60;99.90;;;;;;5903170;24;20020;-80
2021/11/18 03:03:37;;;;;;;9.00;8.02;;;3.60;99.90;;;;;;5926005;24;20036;-80
2021/11/18 03:06:06;;;;;;;8.80;5.30;;;3.50;99.90;;;;;;5931695;24;20181;-80
2021/11/18 03:08:34;;;;;;;8.23;6.10;;;3.60;99.90;;;;;;5996794;23;20059;-80
2021/11/18 03:11:02;;;;;;;7.05;4.82;;;3.50;99.90;;;;;;6006145;23;20038;-80
2021/11/18 03:13:31;;;;;;;7.53;5.25;;;3.60;99.90;;;;;;6014928;23;20336;-80
2021/11/18 03:16:22;;;;;;;7.32;5.20;;;3.60;99.90;;;;;;5961787;23;20463;-80
2021/11/18 03:19:51;;;;;;;8.98;6.30;;;3.70;99.90;;;;;;5982659;23;20024;-80
2021/11/18 03:23:02;;;;;;;5.55;4.68;;;3.70;99.90;;;;;;5998604;23;20027;-80
2021/11/18 03:25:33;;;;;;;6.50;5.78;;;3.70;99.90;;;;;;6006347;23;20020;-80
2021/11/18 03:28:11;;;;;;;8.07;6.30;;;3.90;99.90;;;;;;6008983;23;20023;-80
2021/11/18 03:30:44;;;;;;;6.93;5.32;;;3.80;99.90;;;;;;5959041;23;20271;-80
2021/11/18 03:33:20;;;;;;;6.03;4.88;;;3.80;99.90;;;;;;6039720;23;20035;-80
2021/11/18 03:35:48;;;;;;;7.60;5.80;;;3.80;99.90;;;;;;6029165;23;20027;-80
2021/11/18 03:38:17;;;;;;;7.28;6.53;;;3.80;99.90;;;;;;6010773;23;20038;-80
2021/11/18 03:40:52;;;;;;;8.23;6.28;;;3.80;99.90;;;;;;6053944;23;20026;-80
2021/11/18 03:43:22;;;;;;;6.50;5.90;;;3.80;99.90;;;;;;6007032;23;20022;-80
2021/11/18 03:45:50;;;;;;;9.25;6.22;;;3.80;99.90;;;;;;6013575;23;20039;-80
2021/11/18 03:48:19;;;;;;;7.95;6.05;;;3.70;99.90;;;;;;6015682;23;20011;-80
2021/11/18 03:50:48;;;;;;;9.60;4.97;;;3.80;99.90;;;;;;5982284;23;20032;-80
2021/11/18 03:53:17;;;;;;;6.55;5.60;;;3.70;99.90;;;;;;5958019;23;20031;-80
2021/11/18 03:55:46;;;;;;;15.20;6.07;;;3.70;99.90;;;;;;6017483;23;20027;-80
2021/11/18 03:58:14;;;;;;;8.18;5.57;;;3.80;99.90;;;;;;6011395;23;20031;-80
2021/11/18 04:00:42;;;;;;;7.22;5.60;;;3.70;99.90;;;;;;6006142;23;20030;-80
2021/11/18 04:03:12;;;;;;;8.00;6.32;;;3.70;99.90;;;;;;6007441;23;20032;-80
2021/11/18 04:05:42;;;;;;;7.57;5.10;;;3.70;99.90;;;;;;6037692;23;20054;-80
2021/11/18 04:08:12;;;;;;;6.95;5.28;;;3.70;99.90;;;;;;6014775;23;20035;-80
2021/11/18 04:10:41;;;;;;;10.82;5.95;;;3.70;99.90;;;;;;5981650;23;20028;-80
2021/11/18 04:13:10;;;;;;;7.68;6.72;;;3.70;99.90;;;;;;5983034;23;20027;-80
2021/11/18 04:15:38;;;;;;;8.68;5.72;;;3.60;99.90;;;;;;5982227;23;20031;-80
2021/11/18 04:18:11;;;;;;;5.25;4.25;;;3.60;99.90;;;;;;5982038;23;20463;-80
2021/11/18 04:20:40;;;;;;;7.45;6.63;;;3.60;99.90;;;;;;6006801;23;20348;-80
2021/11/18 04:23:07;;;;;;;5.03;4.53;;;3.60;99.90;;;;;;6006674;23;20032;-80
2021/11/18 04:25:37;;;;;;;11.23;6.75;;;3.70;99.90;;;;;;5960809;23;20028;-80
2021/11/18 04:28:06;;;;;;;8.43;5.85;;;3.60;99.90;;;;;;5983294;23;20471;-80
2021/11/18 04:30:53;;;;;;;13.02;6.72;;;3.60;99.90;;;;;;5982455;23;20758;-80
2021/11/18 04:33:25;;;;;;;8.77;6.18;;;3.60;99.90;;;;;;6014963;23;20019;-80
2021/11/18 04:35:54;;;;;;;6.13;5.07;;;3.60;99.90;;;;;;5983501;23;20455;-80
2021/11/18 04:38:26;;;;;;;8.75;5.57;;;3.60;99.90;;;;;;5982287;23;20235;-80
2021/11/18 04:40:55;;;;;;;7.93;5.40;;;3.50;99.90;;;;;;5983501;23;20019;-80
2021/11/18 04:43:23;;;;;;;8.57;4.70;;;3.50;99.90;;;;;;6031505;23;20031;-80
2021/11/18 04:45:57;;;;;;;8.35;5.13;;;3.40;99.90;;;;;;5982820;23;20031;-80
2021/11/18 04:48:24;;;;;;;8.77;5.13;;;3.50;99.90;;;;;;5983400;23;20019;-80
2021/11/18 04:50:54;;;;;;;6.68;4.93;;;3.40;99.90;;;;;;5983408;23;20452;-80
2021/11/18 04:53:26;;;;;;;9.15;5.07;;;3.40;99.90;;;;;;6038029;23;20011;-81
2021/11/18 04:55:58;;;;;;;6.53;5.55;;;3.40;99.90;;;;;;5993920;23;20016;-80
2021/11/18 04:58:30;;;;;;;10.23;6.07;;;3.40;99.90;;;;;;5982453;23;20026;-80
2021/11/18 05:00:59;;;;;;;9.57;6.50;;;3.40;99.90;;;;;;5992715;23;20459;-79
2021/11/18 05:03:29;;;;;;;7.35;6.45;;;3.40;99.90;;;;;;5982264;23;20039;-80
2021/11/18 05:05:58;;;;;;;9.88;6.57;;;3.40;99.90;;;;;;6037128;23;20034;-80
2021/11/18 05:08:27;;;;;;;8.32;5.13;;;3.30;99.90;;;;;;6015498;23;20042;-80
2021/11/18 05:10:56;;;;;;;8.93;5.32;;;3.30;99.90;;;;;;6031941;23;20039;-80
2021/11/18 05:13:28;;;;;;;12.50;7.32;;;3.30;99.90;;;;;;6014957;23;20023;-80
2021/11/18 05:16:02;;;;;;;8.68;6.10;;;3.40;99.90;;;;;;5961283;23;20019;-80
2021/11/18 05:18:33;;;;;;;7.88;5.68;;;3.40;99.90;;;;;;5982663;23;20024;-80
2021/11/18 05:21:02;;;;;;;11.93;7.43;;;3.40;99.90;;;;;;5983269;23;20024;-80
2021/11/18 05:23:36;;;;;;;9.00;6.57;;;3.40;99.90;;;;;;5979140;23;20031;-80
2021/11/18 05:26:05;;;;;;;9.77;6.03;;;3.40;99.90;;;;;;6012378;23;20036;-78
2021/11/18 05:28:34;;;;;;;6.90;5.38;;;3.50;99.90;;;;;;5982350;23;20043;-80
2021/11/18 05:31:06;;;;;;;12.68;7.03;;;3.50;99.90;;;;;;6008191;23;20031;-80
2021/11/18 05:33:43;;;;;;;8.20;5.97;;;3.50;99.90;;;;;;6003586;23;20027;-81
2021/11/18 05:36:13;;;;;;;7.90;6.70;;;3.40;99.90;;;;;;6016011;23;20015;-81
2021/11/18 05:38:44;;;;;;;12.38;6.47;;;3.50;99.90;;;;;;6032484;23;20035;-80
2021/11/18 05:41:14;;;;;;;11.23;8.18;;;3.60;99.90;;;;;;5983067;23;20027;-79
2021/11/18 05:43:43;;;;;;;14.38;7.25;;;3.50;99.90;;;;;;6005889;23;20028;-80
2021/11/18 05:46:12;;;;;;;11.20;7.32;;;3.50;99.90;;;;;;5988680;23;20474;-80
2021/11/18 05:48:41;;;;;;;10.55;7.57;;;3.50;99.90;;;;;;5992499;23;20031;-80
2021/11/18 05:51:23;;;;;;;9.98;7.32;;;3.50;99.90;;;;;;6008570;23;20024;-80
2021/11/18 05:54:40;;;;;;;10.73;6.78;;;3.50;99.90;;;;;;5981592;23;20028;-80
2021/11/18 05:57:36;;;;;;;8.77;5.90;;;3.50;99.90;;;;;;6019108;23;20027;-82
2021/11/18 06:00:10;;;;;;;10.43;7.30;;;3.50;99.90;;;;;;6016214;23;20015;-82
2021/11/18 06:02:45;;;;;;;9.25;7.05;;;3.50;99.90;;;;;;6007015;23;20448;-84
2021/11/18 06:05:23;;;;;;;10.80;6.22;;;3.50;99.90;;;;;;6016157;23;20030;-83
2021/11/18 06:07:52;;;;;;;8.20;6.53;;;3.50;99.90;;;;;;6006781;23;20360;-83
2021/11/18 06:10:23;;;;;;;13.40;8.07;;;3.50;99.90;;;;;;6005668;23;20030;-83
2021/11/18 06:12:51;;;;;;;11.55;7.30;;;3.50;99.90;;;;;;5983661;23;20478;-82
2021/11/18 06:15:39;;;;;;;10.68;6.20;;;3.50;99.90;;;;;;6004770;23;20039;-82
2021/11/18 06:18:09;;;;;;;7.20;5.32;;;3.50;99.90;;;;;;6031691;23;20039;-81
2021/11/18 06:20:38;;;;;;;8.57;6.05;;;3.50;99.90;;;;;;6017726;23;20496;-80
2021/11/18 06:23:07;;;;;;;9.70;5.53;;;3.60;99.90;;;;;;6010842;23;20035;-80
2021/11/18 06:25:37;;;;;;;8.90;6.70;;;3.60;99.90;;;;;;6016193;23;20019;-79
2021/11/18 06:28:08;;;;;;;10.63;7.13;;;3.50;99.90;;;;;;6007953;23;20020;-80
2021/11/18 06:30:54;;;;;;;11.30;7.43;;;3.60;99.90;;;;;;6011634;23;20039;-81
2021/11/18 06:33:24;;;;;;;15.50;8.30;;;3.60;99.90;;;;;;5993441;23;20012;-80
2021/11/18 06:35:55;;;;;;;19.27;7.93;;;3.70;99.90;;;;;;6017821;23;20336;-81
2021/11/18 06:38:41;;;;;;;9.70;7.47;;;3.60;99.90;;;;;;5987065;23;20027;-81
2021/11/18 06:41:11;;;;;;;9.55;7.30;;;3.70;99.90;;;;;;6040938;23;20020;-81
2021/11/18 06:43:40;;;;;;;9.63;6.65;;;3.70;99.90;;;;;;6007798;23;20039;-81
2021/11/18 06:46:12;;;;;;;7.50;6.75;;;3.70;99.90;;;;;;5984464;23;20458;-81
2021/11/18 06:48:40;;;;;;;9.25;7.93;;;3.70;99.90;;;;;;6017435;23;20022;-81
2021/11/18 06:51:18;;;;;;;12.48;7.18;;;3.80;99.90;;;;;;5961902;23;20028;-81
2021/11/18 06:53:50;;;;;;;9.75;7.50;;;3.70;99.90;;;;;;6014144;23;20384;-81
2021/11/18 06:56:22;;;;;;;9.82;6.18;;;3.80;99.90;;;;;;6017473;23;20038;-81
2021/11/18 06:58:51;;;;;;;9.77;7.15;;;3.80;99.90;;;;;;6031081;23;20027;-81
2021/11/18 07:01:21;;;;;;;6.90;6.25;;;3.80;99.90;;;;;;6016107;23;20023;-81
2021/11/18 07:03:51;;;;;;;9.07;7.07;;;3.90;99.90;;;;;;6008370;23;20054;-81
2021/11/18 07:06:21;;;;;;;12.63;7.95;;;3.80;99.90;;;;;;5983899;23;20031;-81
2021/11/18 07:08:49;;;;;;;10.25;7.68;;;3.80;99.90;;;;;;6007283;23;20028;-81
2021/11/18 07:11:20;;;;;;;9.57;6.03;;;3.80;99.90;;;;;;5983263;23;20039;-82
2021/11/18 07:13:48;;;;;;;6.95;6.00;;;3.90;99.90;;;;;;6030663;23;20027;-81
2021/11/18 07:16:19;;;;;;;9.50;6.40;;;3.80;99.90;;;;;;5994229;23;20063;-81
2021/11/18 07:18:49;;;;;;;10.23;7.03;;;3.90;99.90;;;;;;6058176;23;20032;-81
2021/11/18 07:21:22;;;;;;;12.85;7.07;;;3.90;99.90;;;;;;6006210;23;20344;-82
2021/11/18 07:23:53;;;;;;;9.25;6.20;;;4.00;99.90;;;;;;6016467;23;20022;-81
2021/11/18 07:26:23;;;;;;;10.57;7.80;;;4.00;99.90;;;;;;6011878;23;20031;-81
2021/11/18 07:28:52;;;;;;;7.73;6.73;;;4.10;99.90;;;;;;5984294;23;20035;-81
2021/11/18 07:31:20;;;;;;;9.38;6.72;;;4.10;99.90;;;;;;5985309;23;20028;-81
2021/11/18 07:33:51;;;;;;;10.40;6.97;;;4.20;99.90;;;;;;6061240;23;20028;-81
2021/11/18 07:36:20;;;;;;;9.00;6.28;;;4.20;99.90;;;;;;6017168;23;20340;-80
2021/11/18 07:38:47;;;;;;;8.93;7.68;;;4.20;99.90;;;;;;6011269;23;20039;-82
2021/11/18 07:41:15;;;;;;;10.13;6.75;;;4.30;99.90;;;;;;6030899;23;20030;-80
2021/11/18 07:43:54;;;;;;;8.05;6.18;;;4.30;99.90;;;;;;6021753;23;20027;-80
2021/11/18 07:47:08;;;;;;;9.25;6.15;;;4.30;99.90;;;;;;6037221;23;20345;-80
2021/11/18 07:49:36;;;;;;;9.48;8.05;;;4.30;99.90;;;;;;6043503;23;20026;-80
2021/11/18 07:52:04;;;;;;;9.40;6.47;;;4.30;99.90;;;;;;6068378;23;20468;-80
2021/11/18 07:54:32;;;;;;;10.57;7.15;;;4.30;99.90;;;;;;6010110;23;20030;-80
2021/11/18 07:57:01;;;;;;;9.10;6.72;;;4.30;99.90;;;;;;6008675;23;20015;-80
2021/11/18 07:59:28;;;;;;;10.95;7.28;;;4.40;99.90;;;;;;6034421;23;20447;-80
2021/11/18 08:01:59;;;;;;;12.23;7.07;;;4.40;99.90;;;;;;6041784;23;20034;-80
2021/11/18 08:04:29;;;;;;;11.73;7.53;;;4.40;99.90;;;;;;6044792;23;20347;-80
2021/11/18 08:07:03;;;;;;;8.23;5.97;;;4.50;99.90;;;;;;6037951;23;20030;-80
2021/11/18 08:09:31;;;;;;;15.15;8.32;;;4.50;99.90;;;;;;6010892;23;20015;-80
2021/11/18 08:12:04;;;;;;;10.30;9.02;;;4.50;99.90;;;;;;6034843;23;20030;-80
2021/11/18 08:14:33;;;;;;;10.88;6.82;;;4.60;99.90;;;;;;6011173;23;20054;-80
2021/11/18 08:17:02;;;;;;;9.93;7.25;;;4.70;99.90;;;;;;6012139;23;20043;-80
2021/11/18 08:19:30;;;;;;;11.68;7.60;;;4.70;99.90;;;;;;6037037;23;20034;-81
2021/11/18 08:22:10;;;;;;;12.95;7.43;;;4.70;99.90;;;;;;6064085;23;20038;-80
2021/11/18 08:24:38;;;;;;;12.45;7.70;;;4.80;99.90;;;;;;6068397;23;20023;-80
2021/11/18 08:27:06;;;;;;;9.93;6.72;;;4.80;99.90;;;;;;6037616;23;20027;-80
2021/11/18 08:29:38;;;;;;;9.13;6.73;;;4.80;99.90;;;;;;6038490;23;20031;-80
2021/11/18 08:32:07;;;;;;;8.60;7.07;;;4.80;99.90;;;;;;6049684;23;20431;-80
2021/11/18 08:35:02;;;;;;;9.63;7.35;;;4.80;99.90;;;;;;6002548;23;20023;-80
2021/11/18 08:37:38;;;;;;;10.60;8.23;;;4.80;99.90;;;;;;6063876;23;20021;-80
2021/11/18 08:40:06;;;;;;;;;;;4.90;99.90;;;;;;6076394;23;20459;-80
2021/11/18 08:42:35;;;;;;;10.85;6.70;;;4.90;99.90;;;;;;6044766;23;19921;-80
2021/11/18 08:45:08;;;;;;;11.38;6.85;;;5.00;99.90;;;;;;6050628;23;20015;-80
2021/11/18 08:47:38;;;;;;;9.20;6.75;;;5.00;99.90;;;;;;6015877;23;20037;-80
2021/11/18 08:50:13;;;;;;;7.80;6.35;;;5.10;99.90;;;;;;6016584;23;20046;-80
2021/11/18 08:52:42;;;;;;;7.70;5.03;;;5.00;99.90;;;;;;6073333;23;20030;-80
2021/11/18 08:55:22;;;;;;;10.40;5.93;;;5.00;99.90;;;;;;6016572;23;20429;-80
2021/11/18 08:57:53;;;;;;;8.50;7.05;;;5.00;99.90;;;;;;6047077;23;20038;-80
2021/11/18 09:00:53;;;;;;;7.15;5.65;;;5.00;99.90;;;;;;6020479;23;20019;-80
2021/11/18 09:03:25;;;;;;;8.63;6.38;;;5.10;99.90;;;;;;6018132;23;20447;-80
2021/11/18 09:05:56;;;;;;;10.20;7.53;;;5.00;99.90;;;;;;6016242;23;20027;-80
2021/11/18 09:08:26;;;;;;;6.70;5.18;;;5.10;99.90;;;;;;6016132;23;20034;-81
2021/11/18 09:11:06;;;;;;;11.68;7.40;;;5.20;99.90;;;;;;6016372;23;20031;-80
2021/11/18 09:13:37;;;;;;;8.20;6.82;;;5.20;99.90;;;;;;6016104;23;20015;-80
2021/11/18 09:16:07;;;;;;;6.18;5.57;;;5.20;99.90;;;;;;6017186;23;20023;-80
2021/11/18 09:18:40;;;;;;;7.80;6.63;;;5.30;99.90;;;;;;6014765;23;20033;-80
2021/11/18 09:21:15;;;;;;;6.70;6.10;;;5.50;99.90;;;;;;6049648;23;20019;-80
2021/11/18 09:23:49;;;;;;;6.40;5.15;;;5.50;99.90;;;;;;6015293;23;20482;-80
2021/11/18 09:26:23;;;;;;;8.23;5.90;;;5.60;99.90;;;;;;6045331;23;20042;-80
2021/11/18 09:28:51;;;;;;;8.38;6.45;;;5.70;99.90;;;;;;6036894;23;20329;-80
2021/11/18 09:31:26;;;;;;;9.02;6.75;;;5.70;99.90;;;;;;6010775;23;20031;-80
2021/11/18 09:33:55;;;;;;;7.07;5.47;;;5.60;99.90;;;;;;6041996;23;20351;-80
2021/11/18 09:36:30;;;;;;;7.22;4.88;;;5.50;99.90;;;;;;5988915;23;20034;-80
2021/11/18 09:39:05;;;;;;;6.90;5.35;;;5.70;99.90;;;;;;6014601;23;20486;-80
2021/11/18 09:41:57;;;;;;;7.35;5.13;;;5.90;99.90;;;;;;6043718;23;20015;-80
2021/11/18 09:44:48;;;;;;;8.30;6.57;;;6.00;99.90;;;;;;6035158;23;20022;-80
2021/11/18 09:47:38;;;;;;;5.57;4.82;;;6.00;99.90;;;;;;6036124;23;20034;-80
2021/11/18 09:50:54;;;;;;;6.15;4.88;;;6.10;99.90;;;;;;6011478;23;20054;-80
2021/11/18 09:53:28;;;;;;;6.25;4.03;;;6.10;99.90;;;;;;5931837;23;20024;-80
2021/11/18 09:56:39;;;;;;;7.25;4.55;;;6.10;99.90;;;;;;5933539;24;20024;-80
2021/11/18 09:59:27;;;;;;;6.75;4.97;;;6.20;99.90;;;;;;6014053;23;20035;-80
2021/11/18 10:02:32;;;;;;;7.80;5.45;;;6.30;99.90;;;;;;5993013;23;20479;-80
2021/11/18 10:05:07;;;;;;;;;;;6.20;99.90;;;;;;5927669;23;20019;-80
2021/11/18 10:07:47;;;;;;;5.85;4.28;;;6.30;99.90;;;;;;6008362;23;19929;-80
2021/11/18 10:10:28;;;;;;;8.15;4.47;;;6.30;99.90;;;;;;5985119;23;20448;-80
2021/11/18 10:13:11;;;;;;;3.97;3.50;;;6.20;99.90;;;;;;6018097;23;20042;-80
2021/11/18 10:16:05;;;;;;;6.07;4.70;;;6.10;99.90;;;;;;6032195;23;20020;-80
2021/11/18 10:18:39;;;;;;;7.93;6.38;;;6.10;99.90;;;;;;6036264;23;20082;-80
2021/11/18 10:21:25;;;;;;;9.13;4.13;;;6.20;99.90;;;;;;6008561;23;20039;-80
2021/11/18 10:23:58;;;;;;;4.28;3.85;;;6.40;99.90;;;;;;5992912;23;20085;-80
2021/11/18 10:26:35;;;;;;;3.55;2.72;;;6.40;99.90;;;;;;6037019;23;20028;-81
2021/11/18 10:29:17;;;;;;;4.50;4.05;;;6.60;99.90;;;;;;5985619;23;20023;-80
2021/11/18 10:31:54;;;;;;;;;;;6.70;99.90;;;;;;6031281;23;20363;-79
2021/11/18 10:34:49;;;;;;;3.83;3.35;;;6.60;99.90;;;;;;5984451;23;19925;-80
2021/11/18 10:37:27;;;;;;;5.78;5.25;;;6.60;99.90;;;;;;6017214;23;20322;-80
2021/11/18 10:40:22;;;;;;;3.75;3.00;;;6.70;99.90;;;;;;5985632;23;20026;-80
2021/11/18 10:43:14;;;;;;;3.67;2.42;;;6.70;99.90;;;;;;6011701;23;20030;-80
2021/11/18 10:45:47;;;;;;;2.25;2.05;;;6.70;99.90;;;;;;6016121;23;20032;-80
2021/11/18 10:48:32;;;;;;;2.95;2.60;;;6.80;99.90;;;;;;5985402;23;20016;-80
2021/11/18 10:51:17;;;;;;;5.63;3.30;;;6.70;99.90;;;;;;6012067;23;20020;-80
2021/11/18 10:53:55;;;;;;;3.88;3.40;;;6.70;99.90;;;;;;6015062;23;20028;-80
2021/11/18 10:56:49;;;;;;;3.08;2.47;;;6.60;99.90;;;;;;6042077;23;20023;-80
2021/11/18 10:59:36;;;;;;;5.22;2.72;;;6.60;99.90;;;;;;6008616;23;20451;-80
2021/11/18 11:02:30;;;;;;;3.92;3.10;;;6.70;99.90;;;;;;5984319;23;20475;-80
2021/11/18 11:05:04;;;;;;;3.97;3.22;;;6.70;99.90;;;;;;6032143;23;20656;-81
2021/11/18 11:07:42;;;;;;;3.60;2.83;;;6.70;99.90;;;;;;5985082;23;20483;-80
2021/11/18 11:10:14;;;;;;;2.25;1.80;;;6.80;99.90;;;;;;6013971;23;20020;-80
2021/11/18 11:13:05;;;;;;;2.97;2.15;;;7.10;99.90;;;;;;5985155;23;20340;-80
2021/11/18 11:15:51;;;;;;;3.70;2.40;;;7.10;99.90;;;;;;6007673;23;20024;-80
2021/11/18 11:18:53;;;;;;;3.75;2.33;;;7.10;99.90;;;;;;5984150;23;20452;-79
2021/11/18 11:21:44;;;;;;;;;;;7.40;99.90;;;;;;5995550;23;20036;-79
2021/11/18 11:24:27;;;;;;;2.92;2.53;;;7.60;99.90;;;;;;6017255;23;19946;-79
2021/11/18 11:27:24;;;;;;;3.63;2.83;;;7.60;99.90;;;;;;5985169;23;20039;-79
2021/11/18 11:29:57;;;;;;;4.72;3.33;;;7.50;99.90;;;;;;5932370;23;20044;-79
2021/11/18 11:32:44;;;;;;;4.03;2.67;;;7.50;99.90;;;;;;6007280;23;20046;-79
2021/11/18 11:35:24;;;;;;;4.10;3.25;;;7.60;99.90;;;;;;5986423;23;20039;-78
2021/11/18 11:38:10;;;;;;;4.80;3.13;;;7.50;99.90;;;;;;5991176;23;20344;-79
2021/11/18 11:41:01;;;;;;;3.47;2.65;;;7.40;99.90;;;;;;6018493;23;20252;-79
2021/11/18 11:44:13;;;;;;;4.82;3.47;;;7.40;99.90;;;;;;5985572;23;20352;-79
2021/11/18 11:46:47;;;;;;;4.60;3.90;;;7.60;99.90;;;;;;5949923;23;20034;-79
2021/11/18 11:49:30;;;;;;;6.10;2.70;;;7.70;99.90;;;;;;6021947;23;20490;-79
2021/11/18 11:52:19;;;;;;;2.25;2.05;;;7.90;99.90;;;;;;5996896;23;20352;-79
2021/11/18 11:54:59;;;;;;;2.75;2.45;;;7.70;99.90;;;;;;5989159;23;20023;-79
2021/11/18 11:57:46;;;;;;;3.13;2.92;;;7.60;99.90;;;;;;5989086;23;20034;-79
2021/11/18 12:00:17;;;;;;;2.95;2.75;;;7.50;99.90;;;;;;5989509;23;20023;-81
2021/11/18 12:02:56;;;;;;;3.85;3.25;;;7.60;99.90;;;;;;5988616;23;20024;-82
2021/11/18 12:05:48;;;;;;;2.72;2.50;;;7.70;99.90;;;;;;5988281;23;20034;-82
2021/11/18 12:08:35;;;;;;;6.60;3.22;;;7.60;99.90;;;;;;6012164;23;20493;-82
2021/11/18 12:11:06;;;;;;;3.08;2.63;;;7.60;99.90;;;;;;5987933;23;20479;-81
2021/11/18 12:13:47;;;;;;;;;;;7.60;99.90;;;;;;6019742;23;20454;-82
2021/11/18 12:16:24;;;;;;;8.70;3.17;;;7.50;99.90;;;;;;5989197;23;20261;-83
2021/11/18 12:19:15;;;;;;;3.63;3.33;;;7.20;99.90;;;;;;5988190;23;20031;-83
2021/11/18 12:21:43;;;;;;;3.10;2.53;;;7.30;99.90;;;;;;6019862;23;20038;-82
2021/11/18 12:24:15;;;;;;;4.18;3.72;;;7.40;99.90;;;;;;6021438;23;20026;-81
2021/11/18 12:27:11;;;;;;;2.78;1.83;;;7.40;99.90;;;;;;6015935;23;20046;-85
2021/11/18 12:29:49;;;;;;;2.60;2.25;;;7.30;99.90;;;;;;5988607;23;20035;-84
2021/11/18 12:32:17;;;;;;;2.53;2.10;;;7.20;99.90;;;;;;5989436;23;20339;-83
2021/11/18 12:35:08;;;;;;;2.42;2.05;;;7.20;99.90;;;;;;6015539;23;20363;-85
2021/11/18 12:37:45;;;;;;;3.42;2.90;;;7.30;99.90;;;;;;6011507;23;20038;-84
2021/11/18 12:40:16;;;;;;;3.33;2.28;;;7.20;99.90;;;;;;5989218;23;20026;-84
2021/11/18 12:43:12;;;;;;;4.47;1.80;;;7.20;99.90;;;;;;6016010;23;20031;-83
2021/11/18 12:45:48;;;;;;;2.00;1.90;;;7.20;99.90;;;;;;6045326;23;20103;-80
2021/11/18 12:48:37;;;;;;;3.80;3.50;;;7.30;99.90;;;;;;6022021;23;20038;-81
2021/11/18 12:51:31;;;;;;;2.08;1.88;;;7.30;99.90;;;;;;6014038;23;20023;-82
2021/11/18 12:54:49;;;;;;;2.85;2.65;;;7.30;99.90;;;;;;5975030;23;20038;-80
2021/11/18 12:57:39;;;;;;;2.53;2.10;;;7.30;99.90;;;;;;5962577;23;20023;-82
2021/11/18 13:00:16;;;;;;;2.78;2.53;;;7.30;99.90;;;;;;6012905;23;20026;-83
2021/11/18 13:02:52;;;;;;;3.85;1.90;;;7.40;99.90;;;;;;5988348;23;20035;-83
2021/11/18 13:05:20;;;;;;;2.67;2.03;;;7.50;99.90;;;;;;6021098;23;20015;-84
2021/11/18 13:07:51;;;;;;;2.85;2.20;;;7.60;99.90;;;;;;5988616;23;20019;-85
2021/11/18 13:10:18;;;;;;;2.30;2.10;;;7.60;99.90;;;;;;5988057;23;20348;-83
2021/11/18 13:13:09;;;;;;;2.00;1.55;;;7.60;99.90;;;;;;5989217;23;20343;-82
2021/11/18 13:15:50;;;;;;;1.70;1.55;;;7.60;99.90;;;;;;5960149;23;20334;-87
2021/11/18 13:19:04;;;;;;;1.75;1.65;;;7.60;99.90;;;;;;5930282;24;20024;-84
2021/11/18 13:22:18;;;;;;;1.80;1.63;;;7.60;99.90;;;;;;5959379;23;20024;-83
2021/11/18 13:25:15;;;;;;;3.63;3.38;;;7.60;99.90;;;;;;5948311;23;20019;-81
2021/11/18 13:28:01;;;;;;;2.50;2.33;;;7.60;99.90;;;;;;5977939;24;20025;-82
2021/11/18 13:30:50;;;;;;;3.33;3.03;;;7.70;99.90;;;;;;5983739;24;20365;-79
2021/11/18 13:33:31;;;;;;;2.42;1.73;;;7.60;99.90;;;;;;5978098;23;20074;-81
2021/11/18 13:36:04;;;;;;;3.80;1.80;;;7.50;99.90;;;;;;5956520;24;20357;-80
2021/11/18 13:38:48;;;;;;;2.97;1.98;;;7.40;99.90;;;;;;6029141;23;20031;-82
2021/11/18 13:41:19;;;;;;;2.33;1.75;;;7.30;99.90;;;;;;6011739;23;20016;-83
2021/11/18 13:43:53;;;;;;;3.03;2.85;;;7.20;99.90;;;;;;5979859;23;20028;-83
2021/11/18 13:46:34;;;;;;;2.03;1.60;;;7.20;99.90;;;;;;5978581;24;20025;-82
2021/11/18 13:49:02;;;;;;;3.10;2.17;;;7.20;99.90;;;;;;5956297;24;20024;-83
2021/11/18 13:51:45;;;;;;;2.03;1.85;;;7.20;99.90;;;;;;5980081;23;20051;-82
2021/11/18 13:54:33;;;;;;;1.60;1.50;;;7.20;99.90;;;;;;6007761;23;20036;-83
2021/11/18 13:57:10;;;;;;;1.70;1.58;;;7.20;99.90;;;;;;6001917;23;20318;-83
2021/11/18 13:59:52;;;;;;;2.10;1.90;;;7.10;99.90;;;;;;5955941;24;20020;-84
2021/11/18 14:02:25;;;;;;;1.85;1.75;;;7.10;99.90;;;;;;5983474;24;20032;-82
2021/11/18 14:05:08;;;;;;;1.95;1.80;;;7.10;99.90;;;;;;5956562;24;20028;-81
2021/11/18 14:07:45;;;;;;;2.65;1.90;;;7.10;99.90;;;;;;5979927;23;20483;-82
2021/11/18 14:10:25;;;;;;;9.68;1.88;;;7.10;99.90;;;;;;5983141;24;20529;-84
2021/11/18 14:12:59;;;;;;;4.97;4.07;;;7.10;99.90;;;;;;5955484;24;20039;-85
2021/11/18 14:15:30;;;;;;;7.88;6.43;;;7.10;99.90;;;;;;5955617;24;20031;-85
2021/11/18 14:18:07;;;;;;;13.48;6.63;;;7.10;99.90;;;;;;5985448;24;20051;-85
2021/11/18 14:20:37;;;;;;;5.90;4.90;;;7.10;99.90;;;;;;5990139;24;20016;-86
2021/11/18 14:23:24;;;;;;;7.88;6.15;;;7.00;99.90;;;;;;5954589;24;20024;-85
2021/11/18 14:26:08;;;;;;;10.57;5.07;;;7.00;99.90;;;;;;5955772;24;20027;-85
2021/11/18 14:28:51;;;;;;;6.00;5.45;;;6.90;99.90;;;;;;6002044;23;20024;-85
2021/11/18 14:31:53;;;;;;;6.35;5.57;;;6.80;99.90;;;;;;5955374;24;20029;-86
2021/11/18 14:34:50;;;;;;;13.77;5.88;;;6.70;99.90;;;;;;5983398;23;20040;-86
2021/11/18 14:37:52;;;;;;;6.20;5.60;;;6.60;99.90;;;;;;5932951;23;20054;-84
2021/11/18 14:40:55;;;;;;;6.85;5.32;;;6.50;99.90;;;;;;5970574;24;20345;-85
2021/11/18 14:43:45;;;;;;;6.22;4.82;;;6.40;99.90;;;;;;6004871;23;20027;-86
2021/11/18 14:46:34;;;;;;;7.45;4.57;;;6.30;99.90;;;;;;5956794;24;20024;-85
2021/11/18 14:49:30;;;;;;;5.50;4.47;;;6.20;99.90;;;;;;5990284;24;20366;-85
2021/11/18 14:52:36;;;;;;;7.53;5.43;;;6.10;99.90;;;;;;5966068;24;20028;-85
2021/11/18 14:55:14;;;;;;;9.38;6.53;;;6.00;99.90;;;;;;5972347;23;20079;-86
2021/11/18 14:57:49;;;;;;;7.18;6.20;;;6.00;99.90;;;;;;5979926;23;20028;-86
2021/11/18 15:00:22;;;;;;;7.18;5.03;;;5.90;99.90;;;;;;6013236;23;20013;-87
2021/11/18 15:02:51;;;;;;;7.03;5.07;;;5.80;99.90;;;;;;5984852;23;20032;-86
2021/11/18 15:05:19;;;;;;;5.25;4.15;;;5.80;99.90;;;;;;5979814;23;20024;-86
2021/11/18 15:07:47;;;;;;;7.25;5.65;;;5.70;99.90;;;;;;5980016;24;20031;-86
2021/11/18 15:10:16;;;;;;;7.93;4.70;;;5.70;99.90;;;;;;5979743;24;20032;-87
2021/11/18 15:12:47;;;;;;;9.32;5.50;;;5.70;99.90;;;;;;5991499;24;20310;-89
2021/11/18 15:15:19;;;;;;;7.93;6.50;;;5.60;99.90;;;;;;5981565;23;20024;-88
2021/11/18 15:17:54;;;;;;;7.45;6.15;;;5.60;99.90;;;;;;5980044;24;20330;-89
2021/11/18 15:20:24;;;;;;;5.53;4.75;;;5.50;99.90;;;;;;5957372;24;20031;-89
2021/11/18 15:22:54;;;;;;;7.60;5.80;;;5.40;99.90;;;;;;5984289;23;20031;-89
2021/11/18 15:25:25;;;;;;;6.25;5.28;;;5.30;99.90;;;;;;6012150;23;20031;-89
2021/11/18 15:27:53;;;;;;;9.00;5.78;;;5.30;99.90;;;;;;5956993;24;20036;-89
2021/11/18 15:30:25;;;;;;;6.97;4.55;;;5.20;99.90;;;;;;5986627;23;20028;-90
2021/11/18 15:32:53;;;;;;;7.18;5.28;;;5.20;99.90;;;;;;5934460;24;20024;-88
2021/11/18 15:35:24;;;;;;;6.15;5.45;;;5.10;99.90;;;;;;5979453;23;20016;-89
2021/11/18 15:37:54;;;;;;;7.22;5.35;;;5.00;99.90;;;;;;5979476;24;20031;-89
2021/11/18 15:40:25;;;;;;;8.55;5.30;;;5.00;99.90;;;;;;5957214;24;20780;-88
2021/11/18 15:42:53;;;;;;;7.05;5.30;;;4.80;99.90;;;;;;5956632;24;20480;-85
2021/11/18 15:45:24;;;;;;;9.52;6.22;;;4.60;99.90;;;;;;5979498;23;20020;-86
2021/11/18 15:47:53;;;;;;;7.07;5.13;;;4.40;99.90;;;;;;5991007;24;20344;-86
2021/11/18 15:50:24;;;;;;;6.65;5.75;;;4.30;99.90;;;;;;5986043;23;20028;-85
2021/11/18 15:52:52;;;;;;;5.85;4.28;;;4.30;99.90;;;;;;6011825;23;20028;-85
2021/11/18 15:55:53;;;;;;;8.50;5.88;;;4.30;99.90;;;;;;5981134;23;20457;-86
2021/11/18 15:58:21;;;;;;;;;;;4.10;99.90;;;;;;5956748;24;20480;-86
2021/11/18 16:00:52;;;;;;;6.65;4.65;;;3.80;99.90;;;;;;5979810;24;19922;-85
2021/11/18 16:03:21;;;;;;;6.25;5.65;;;3.60;99.90;;;;;;5979080;24;20349;-85
2021/11/18 16:05:50;;;;;;;9.20;6.93;;;3.50;99.90;;;;;;5986733;23;20031;-85
2021/11/18 16:08:25;;;;;;;5.25;4.43;;;3.40;99.90;;;;;;5989990;24;20013;-86
2021/11/18 16:11:03;;;;;;;6.80;6.30;;;3.10;99.90;;;;;;5982567;24;20028;-85
2021/11/18 16:13:37;;;;;;;7.50;5.75;;;2.90;99.90;;;;;;5987430;23;20467;-88
2021/11/18 16:16:07;;;;;;;9.75;7.65;;;2.90;99.90;;;;;;6012531;23;20441;-85